Erikoussa — SVGV — position and weather

sailwx.info

Track history (hours):
 
Tides and Currents Weather Stations Pressure Air Temp Water Temp Dewpoint Dewpoint Depression Visibility Wind Speed Wind Dir Waves Ship Positions

Erikoussa

Last reported at 2017-Oct-12 06:12 UTC. Time now 2017-Oct-19 08:59 UTC.
Position N 29°44' W 093°52'.

Length 229 m; draft 11.1 m.

Type: Tanker. MMSI: 237928000.

Date/timePositionNaut miles runAvg speedWind from/ knotsBaromVisibWave heightAir tempDewpointWater temp
2017-Oct-12 06:12N 29°44' W 093°52'210.1
2017-Oct-12 06:00N 29°46' W 093°54'  
2017-Oct-06 04:32N 29°45' W 093°54'1 8.5
2017-Oct-06 04:24N 29°45' W 093°53'  
2017-Oct-02 17:46N 25°12' W 079°38'311.3
2017-Oct-02 17:30N 25°15' W 079°38'611.4
2017-Oct-02 16:56N 25°21' W 079°37'711.4
2017-Oct-02 16:21N 25°28' W 079°35'411.5
2017-Oct-02 16:01N 25°31' W 079°35'611.5
2017-Oct-02 15:31N 25°37' W 079°34'611.5
2017-Oct-02 15:00N 25°43' W 079°33'611.5
2017-Oct-02 14:30N 25°49' W 079°32'611.3
2017-Oct-02 14:00N 25°54' W 079°32'611.2
2017-Oct-02 13:30N 25°60' W 079°30'713.2
2017-Oct-02 13:00N 26°05' W 079°26'713.8
2017-Oct-02 12:30N 26°10' W 079°20'714.0
2017-Oct-02 12:00N 26°15' W 079°15'  
Track history (hours):
 
Tides and Currents Weather Stations Pressure Air Temp Water Temp Dewpoint Dewpoint Depression Visibility Wind Speed Wind Dir Waves Ship Positions

Erikoussa

Last reported at 2017-Oct-12 06:12 UTC. Time now 2017-Oct-19 08:59 UTC.
Position N 29°44' W 093°52'.

Length 229 m; draft 11.1 m.

Type: Tanker. MMSI: 237928000.

Date/timePositionNaut miles runAvg speedWind from/ knotsBaromVisibWave heightAir tempDewpointWater temp
2017-Oct-12 06:12N 29°44' W 093°52'210.1
2017-Oct-12 06:00N 29°46' W 093°54'  
2017-Oct-06 04:32N 29°45' W 093°54'1 8.5
2017-Oct-06 04:24N 29°45' W 093°53'  
2017-Oct-02 17:46N 25°12' W 079°38'311.3
2017-Oct-02 17:30N 25°15' W 079°38'611.4
2017-Oct-02 16:56N 25°21' W 079°37'711.4
2017-Oct-02 16:21N 25°28' W 079°35'411.5
2017-Oct-02 16:01N 25°31' W 079°35'611.5
2017-Oct-02 15:31N 25°37' W 079°34'611.5
2017-Oct-02 15:00N 25°43' W 079°33'611.5
2017-Oct-02 14:30N 25°49' W 079°32'611.3
2017-Oct-02 14:00N 25°54' W 079°32'611.2
2017-Oct-02 13:30N 25°60' W 079°30'713.2
2017-Oct-02 13:00N 26°05' W 079°26'713.8
2017-Oct-02 12:30N 26°10' W 079°20'714.0
2017-Oct-02 12:00N 26°15' W 079°15'  

Dump ship's entire track history